This is the latest recevied weather packets stored in our database for station/object Aldingen. If no packets are shown the sender has not sent any weather packets the latest 10 day(s).
| Time | Temp. | Humidity | Pressure | Rain* | Wind** | Luminosity | Snow |
|---|---|---|---|---|---|---|---|
| 1777032130 | 18.33° C | 25% | 1020.3 hPa | 0 mm | - | - | - |
| 1777030332 | 17.22° C | 27% | 1020.4 hPa | 0 mm | - | - | - |
| 1777028532 | 17.22° C | 32% | 1020.6 hPa | 0 mm | - | - | - |
| 1777026733 | 16.67° C | 34% | 1020.9 hPa | 0 mm | - | - | - |
| 1777024930 | 16.11° C | 29% | 1021.2 hPa | 0 mm | - | - | - |
| 1777023130 | 15° C | 40% | 1021.3 hPa | 0 mm | - | - | - |
| 1777021336 | 14.44° C | 42% | 1021.3 hPa | 0 mm | - | - | - |
| 1777019531 | 12.78° C | 51% | 1021.5 hPa | 0 mm | - | - | - |
| 1777017732 | 11.11° C | 55% | 1021.6 hPa | 0 mm | - | - | - |
| 1777015932 | 9.44° C | 57% | 1021.6 hPa | 0 mm | - | - | - |
| 1777014133 | 7.78° C | 60% | 1021.8 hPa | 0 mm | - | - | - |
| 1777012337 | 5° C | 70% | 1022.1 hPa | 0 mm | - | - | - |
| 1777010530 | 2.78° C | 75% | 1022.2 hPa | 0 mm | - | - | - |
| 1777008731 | 0.56° C | 80% | 1022.3 hPa | 0 mm | - | - | - |
| 1777006932 | -0.56° C | 83% | 1022.4 hPa | 0 mm | - | - | - |
| 1777005132 | -1.11° C | 83% | 1022.3 hPa | 0 mm | - | - | - |
| 1777003331 | -1.11° C | 83% | 1022.3 hPa | 0 mm | - | - | - |
| 1777001531 | -0.56° C | 81% | 1022.4 hPa | 0 mm | - | - | - |
| 1776999731 | -0.56° C | 80% | 1022.6 hPa | 0 mm | - | - | - |
| 1776997931 | -0.56° C | 80% | 1022.8 hPa | 0 mm | - | - | - |
| 1776996131 | 0° C | 79% | 1023 hPa | 0 mm | - | - | - |
| 1776994331 | 0° C | 79% | 1023.3 hPa | 0 mm | - | - | - |
| 1776992531 | 1.11° C | 76% | 1023.4 hPa | 0 mm | - | - | - |
| 1776990729 | 1.11° C | 75% | 1023.3 hPa | 0 mm | - | - | - |
| 1776988929 | 1.67° C | 73% | 1023.7 hPa | 0 mm | - | - | - |
* Rain since midnight (hover to see other rain measurements)
** Current wind speed in m/s (hover to see current wind gust speed)